Airfield :
LOGIN :

Register | Disclaimer

   EN    FR    IT 

 










Legend :    VFR   Marginal VFR   IFR   Intensive IFR   Very Intensive IFR
Visi :
Ceiling :
>= 8 km
>= 3000ft
5 to 8 km
1000 to 3000 ft
1500m to 5 km
500 to 1000 ft
800 to 1500m
200 to 500 ft
< 800m
< 200 ft
Symbols :   Thunderstorms  Fog  Heavy snow  Heavy precipitations  Wind > 20 kt
SIGMETs :     Misc.  Thunderstorms  Icing  Turbulence  Mountain Waves  Volcanic Ashes







- Airport Elevation : 0 ft


ENSL - Sleipner A Platform

CURRENT METAR :
  • 210420Z AUTO 02008KT 9999NDV NCD 05/00 Q1008 W04/S3

EXPIRED METARs :
  • 210350Z AUTO 02009KT 9999NDV FEW020/// 05/00 Q1008 W04/S3
  • 210320Z AUTO 02007KT 290V060 9999NDV NCD 05/00 Q1008 W04/S3
  • 210250Z AUTO 02007KT 330V050 9999NDV NCD 05/00 Q1008 W04/S3
  • 210220Z AUTO 02007KT 300V100 9999NDV NCD 05/00 Q1007 W04/S3
  • 210150Z AUTO 02007KT 350V060 9999NDV SCT022/// SCT025/// 05/00 Q1007 W04/S3

Expired Forecast.
No reported NOTAMs for that airfield.
1 SIGMET reported for the Scottish FIR (EGPX) :
 
Severe icing
EGPX SIGMET 02 VALID 210435/210715 EGRR
EGPX SCOTTISH FIR SEV ICE FCST SW OF LINE N5759 W01000 - N5500 W00248 FL020/140 MOV NE 10KT NC=



MET'MAP, your aeronautical weather chart ! - Copyright ORBIFLY December 2007 - Disclaimer

ORBIFLY MET'MAP TEAM :

Programming & Development : Alexandra Zaïnal
Concept & Development : Baudouin d'Aumeries
Co-Development & Prog : Marc-Olivier Méhu
Technical & hardware support : Manuel Goepfert

Contact : metmap@orbifly.com




SOURCES & CREDITS :

   NOAA